sensor_id;sensor_type;location;lat;lon;timestamp;pressure;altitude;pressure_sealevel;temperature;humidity
13593;BME280;6867;50.998;4.250;2023-02-19T00:01:18;101806.34;;;13.06;82.11
13593;BME280;6867;50.998;4.250;2023-02-19T00:03:48;101787.09;;;13.09;81.66
13593;BME280;6867;50.998;4.250;2023-02-19T00:06:17;101803.38;;;12.94;82.12
13593;BME280;6867;50.998;4.250;2023-02-19T00:08:44;101810.72;;;13.07;81.86
13593;BME280;6867;50.998;4.250;2023-02-19T00:11:12;101794.47;;;12.66;81.48
13593;BME280;6867;50.998;4.250;2023-02-19T00:13:42;101794.69;;;12.99;81.75
13593;BME280;6867;50.998;4.250;2023-02-19T00:16:12;101788.97;;;13.15;80.59
13593;BME280;6867;50.998;4.250;2023-02-19T00:18:39;101795.34;;;13.01;81.07
13593;BME280;6867;50.998;4.250;2023-02-19T00:21:06;101786.59;;;12.99;80.88
13593;BME280;6867;50.998;4.250;2023-02-19T00:23:34;101785.16;;;12.96;81.15
13593;BME280;6867;50.998;4.250;2023-02-19T00:26:01;101784.19;;;13.11;80.60
13593;BME280;6867;50.998;4.250;2023-02-19T00:28:29;101780.38;;;12.99;80.01
13593;BME280;6867;50.998;4.250;2023-02-19T00:31:03;101784.94;;;12.98;80.66
13593;BME280;6867;50.998;4.250;2023-02-19T00:33:29;101766.78;;;13.13;79.68
13593;BME280;6867;50.998;4.250;2023-02-19T00:35:58;101768.22;;;13.09;79.29
13593;BME280;6867;50.998;4.250;2023-02-19T00:38:25;101759.22;;;13.02;79.68
13593;BME280;6867;50.998;4.250;2023-02-19T00:40:52;101763.88;;;12.80;79.43
13593;BME280;6867;50.998;4.250;2023-02-19T00:43:19;101778.06;;;12.95;79.30
13593;BME280;6867;50.998;4.250;2023-02-19T00:45:45;101772.06;;;12.93;79.22
13593;BME280;6867;50.998;4.250;2023-02-19T00:48:13;101771.16;;;12.86;79.05
13593;BME280;6867;50.998;4.250;2023-02-19T00:50:40;101769.13;;;12.88;78.62
13593;BME280;6867;50.998;4.250;2023-02-19T00:53:07;101754.06;;;13.07;77.85
13593;BME280;6867;50.998;4.250;2023-02-19T00:55:33;101761.53;;;13.05;77.50
13593;BME280;6867;50.998;4.250;2023-02-19T00:58:00;101749.53;;;12.73;77.96
13593;BME280;6867;50.998;4.250;2023-02-19T01:00:27;101773.34;;;12.69;78.29
13593;BME280;6867;50.998;4.250;2023-02-19T01:02:53;101781.03;;;13.01;77.88
13593;BME280;6867;50.998;4.250;2023-02-19T01:05:21;101767.38;;;13.09;76.86
13593;BME280;6867;50.998;4.250;2023-02-19T01:07:48;101773.31;;;12.98;76.76
13593;BME280;6867;50.998;4.250;2023-02-19T01:10:15;101786.31;;;12.87;76.94
13593;BME280;6867;50.998;4.250;2023-02-19T01:12:41;101774.97;;;12.99;76.35
13593;BME280;6867;50.998;4.250;2023-02-19T01:15:08;101774.31;;;12.55;77.50
13593;BME280;6867;50.998;4.250;2023-02-19T01:17:35;101791.28;;;12.84;76.92
13593;BME280;6867;50.998;4.250;2023-02-19T01:20:02;101773.09;;;12.92;76.39
13593;BME280;6867;50.998;4.250;2023-02-19T01:22:30;101771.22;;;12.93;76.47
13593;BME280;6867;50.998;4.250;2023-02-19T01:24:57;101771.00;;;12.94;75.94
13593;BME280;6867;50.998;4.250;2023-02-19T01:27:23;101768.00;;;12.76;76.06
13593;BME280;6867;50.998;4.250;2023-02-19T01:29:50;101764.94;;;12.86;75.77
13593;BME280;6867;50.998;4.250;2023-02-19T01:32:17;101787.25;;;12.45;76.71
13593;BME280;6867;50.998;4.250;2023-02-19T01:34:43;101792.47;;;12.75;76.65
13593;BME280;6867;50.998;4.250;2023-02-19T01:37:10;101782.09;;;12.71;75.96
13593;BME280;6867;50.998;4.250;2023-02-19T01:39:38;101781.56;;;12.89;75.67
13593;BME280;6867;50.998;4.250;2023-02-19T01:42:06;101783.50;;;12.67;76.01
13593;BME280;6867;50.998;4.250;2023-02-19T01:45:20;101778.44;;;12.58;75.66
13593;BME280;6867;50.998;4.250;2023-02-19T01:47:50;101772.22;;;12.85;75.13
13593;BME280;6867;50.998;4.250;2023-02-19T01:50:20;101774.28;;;12.83;74.79
13593;BME280;6867;50.998;4.250;2023-02-19T01:52:47;101774.03;;;12.78;74.42
13593;BME280;6867;50.998;4.250;2023-02-19T01:55:15;101769.06;;;12.75;74.14
13593;BME280;6867;50.998;4.250;2023-02-19T01:57:45;101761.66;;;12.90;73.94
13593;BME280;6867;50.998;4.250;2023-02-19T02:00:14;101766.81;;;12.85;73.81
13593;BME280;6867;50.998;4.250;2023-02-19T02:02:45;101764.50;;;12.82;73.74
13593;BME280;6867;50.998;4.250;2023-02-19T02:05:21;101756.03;;;12.85;73.64
13593;BME280;6867;50.998;4.250;2023-02-19T02:07:49;101765.72;;;12.45;74.00
13593;BME280;6867;50.998;4.250;2023-02-19T02:10:35;101769.38;;;12.65;73.85
13593;BME280;6867;50.998;4.250;2023-02-19T02:13:02;101769.59;;;12.64;73.66
13593;BME280;6867;50.998;4.250;2023-02-19T02:15:37;101761.66;;;12.56;73.72
13593;BME280;6867;50.998;4.250;2023-02-19T02:18:14;101770.50;;;12.78;73.28
13593;BME280;6867;50.998;4.250;2023-02-19T02:21:02;101773.34;;;12.69;73.84
13593;BME280;6867;50.998;4.250;2023-02-19T02:23:39;101780.91;;;12.81;73.60
13593;BME280;6867;50.998;4.250;2023-02-19T02:26:23;101769.13;;;12.88;73.06
13593;BME280;6867;50.998;4.250;2023-02-19T02:29:10;101768.16;;;12.68;73.02
13593;BME280;6867;50.998;4.250;2023-02-19T02:31:46;101765.25;;;12.63;72.87
13593;BME280;6867;50.998;4.250;2023-02-19T02:34:18;101750.44;;;12.87;72.24
13593;BME280;6867;50.998;4.250;2023-02-19T02:36:50;101761.19;;;12.80;71.93
13593;BME280;6867;50.998;4.250;2023-02-19T02:39:19;101755.38;;;12.77;71.97
13593;BME280;6867;50.998;4.250;2023-02-19T02:41:49;101770.66;;;12.69;72.33
13593;BME280;6867;50.998;4.250;2023-02-19T02:44:40;101765.09;;;12.78;71.75
13593;BME280;6867;50.998;4.250;2023-02-19T02:47:29;101770.72;;;12.76;72.02
13593;BME280;6867;50.998;4.250;2023-02-19T02:50:14;101743.44;;;12.99;71.34
13593;BME280;6867;50.998;4.250;2023-02-19T02:52:43;101740.09;;;12.90;71.07
13593;BME280;6867;50.998;4.250;2023-02-19T02:55:30;101743.16;;;12.87;71.16
13593;BME280;6867;50.998;4.250;2023-02-19T02:58:00;101745.19;;;12.72;71.50
13593;BME280;6867;50.998;4.250;2023-02-19T03:00:28;101762.00;;;12.46;71.63
13593;BME280;6867;50.998;4.250;2023-02-19T03:03:23;101758.56;;;12.93;71.12
13593;BME280;6867;50.998;4.250;2023-02-19T03:05:53;101763.84;;;12.74;71.06
13593;BME280;6867;50.998;4.250;2023-02-19T03:08:25;101773.25;;;12.84;71.14
13593;BME280;6867;50.998;4.250;2023-02-19T03:10:56;101757.69;;;12.86;70.83
13593;BME280;6867;50.998;4.250;2023-02-19T03:13:47;101745.47;;;12.90;70.03
13593;BME280;6867;50.998;4.250;2023-02-19T03:16:35;101761.81;;;12.82;70.77
13593;BME280;6867;50.998;4.250;2023-02-19T03:19:24;101761.94;;;12.67;70.89
13593;BME280;6867;50.998;4.250;2023-02-19T03:21:54;101753.81;;;12.61;70.83
13593;BME280;6867;50.998;4.250;2023-02-19T03:24:25;101773.44;;;12.83;70.59
13593;BME280;6867;50.998;4.250;2023-02-19T03:27:11;101764.50;;;12.82;70.62
13593;BME280;6867;50.998;4.250;2023-02-19T03:29:41;101768.84;;;12.77;70.30
13593;BME280;6867;50.998;4.250;2023-02-19T03:32:11;101775.94;;;12.84;70.52
13593;BME280;6867;50.998;4.250;2023-02-19T03:34:43;101788.59;;;12.56;70.88
13593;BME280;6867;50.998;4.250;2023-02-19T03:37:16;101771.97;;;12.80;70.37
13593;BME280;6867;50.998;4.250;2023-02-19T03:39:46;101774.09;;;12.91;69.93
13593;BME280;6867;50.998;4.250;2023-02-19T03:42:23;101784.19;;;12.76;70.46
13593;BME280;6867;50.998;4.250;2023-02-19T03:44:58;101778.00;;;12.82;70.35
13593;BME280;6867;50.998;4.250;2023-02-19T03:47:29;101777.97;;;12.76;69.78
13593;BME280;6867;50.998;4.250;2023-02-19T03:50:02;101782.91;;;12.72;69.84
13593;BME280;6867;50.998;4.250;2023-02-19T03:52:37;101781.97;;;12.30;70.16
13593;BME280;6867;50.998;4.250;2023-02-19T03:55:08;101794.41;;;12.87;70.10
13593;BME280;6867;50.998;4.250;2023-02-19T03:57:44;101794.63;;;12.58;70.25
13593;BME280;6867;50.998;4.250;2023-02-19T04:00:16;101801.34;;;12.96;69.39
13593;BME280;6867;50.998;4.250;2023-02-19T04:02:48;101792.41;;;12.96;69.40
13593;BME280;6867;50.998;4.250;2023-02-19T04:05:21;101794.84;;;12.91;69.44
13593;BME280;6867;50.998;4.250;2023-02-19T04:07:52;101804.13;;;12.82;69.30
13593;BME280;6867;50.998;4.250;2023-02-19T04:10:21;101813.88;;;12.83;69.53
13593;BME280;6867;50.998;4.250;2023-02-19T04:12:51;101806.06;;;12.94;69.49
13593;BME280;6867;50.998;4.250;2023-02-19T04:15:21;101819.19;;;12.69;69.61
13593;BME280;6867;50.998;4.250;2023-02-19T04:17:53;101806.66;;;12.83;69.33
13593;BME280;6867;50.998;4.250;2023-02-19T04:20:23;101815.22;;;12.65;69.82
13593;BME280;6867;50.998;4.250;2023-02-19T04:22:51;101799.72;;;12.46;70.02
13593;BME280;6867;50.998;4.250;2023-02-19T04:25:19;101817.00;;;12.80;69.39
13593;BME280;6867;50.998;4.250;2023-02-19T04:27:46;101809.38;;;12.90;68.78
13593;BME280;6867;50.998;4.250;2023-02-19T04:30:13;101818.78;;;13.01;68.78
13593;BME280;6867;50.998;4.250;2023-02-19T04:32:40;101820.81;;;12.99;68.99
13593;BME280;6867;50.998;4.250;2023-02-19T04:35:07;101823.22;;;12.87;69.04
13593;BME280;6867;50.998;4.250;2023-02-19T04:37:35;101830.47;;;12.80;69.42
13593;BME280;6867;50.998;4.250;2023-02-19T04:40:02;101837.41;;;12.95;69.18
13593;BME280;6867;50.998;4.250;2023-02-19T04:42:29;101829.66;;;12.86;68.73
13593;BME280;6867;50.998;4.250;2023-02-19T04:44:56;101843.13;;;12.79;69.40
13593;BME280;6867;50.998;4.250;2023-02-19T04:47:22;101840.81;;;12.76;68.90
13593;BME280;6867;50.998;4.250;2023-02-19T04:49:49;101840.44;;;12.79;69.11
13593;BME280;6867;50.998;4.250;2023-02-19T04:52:16;101837.13;;;12.84;68.99
13593;BME280;6867;50.998;4.250;2023-02-19T04:54:44;101838.56;;;12.80;69.04
13593;BME280;6867;50.998;4.250;2023-02-19T04:57:10;101839.47;;;12.93;69.02
13593;BME280;6867;50.998;4.250;2023-02-19T04:59:37;101846.94;;;12.63;69.62
13593;BME280;6867;50.998;4.250;2023-02-19T05:02:04;101854.44;;;12.68;69.47
13593;BME280;6867;50.998;4.250;2023-02-19T05:04:30;101854.38;;;12.61;69.73
13593;BME280;6867;50.998;4.250;2023-02-19T05:06:57;101860.66;;;12.68;69.94
13593;BME280;6867;50.998;4.250;2023-02-19T05:09:24;101853.78;;;12.94;68.86
13593;BME280;6867;50.998;4.250;2023-02-19T05:11:52;101853.41;;;12.97;68.83
13593;BME280;6867;50.998;4.250;2023-02-19T05:14:19;101865.78;;;12.91;68.97
13593;BME280;6867;50.998;4.250;2023-02-19T05:16:45;101868.50;;;12.63;69.63
13593;BME280;6867;50.998;4.250;2023-02-19T05:19:12;101873.63;;;12.58;69.50
13593;BME280;6867;50.998;4.250;2023-02-19T05:21:39;101885.88;;;12.61;69.75
13593;BME280;6867;50.998;4.250;2023-02-19T05:24:05;101876.81;;;12.68;69.55
13593;BME280;6867;50.998;4.250;2023-02-19T05:26:32;101882.22;;;12.68;69.37
13593;BME280;6867;50.998;4.250;2023-02-19T05:29:00;101898.84;;;12.29;70.59
13593;BME280;6867;50.998;4.250;2023-02-19T05:31:27;101883.75;;;12.78;69.35
13593;BME280;6867;50.998;4.250;2023-02-19T05:33:54;101897.13;;;12.64;69.90
13593;BME280;6867;50.998;4.250;2023-02-19T05:36:21;101890.19;;;12.55;69.72
13593;BME280;6867;50.998;4.250;2023-02-19T05:38:51;101891.91;;;12.41;69.96
13593;BME280;6867;50.998;4.250;2023-02-19T05:41:20;101900.91;;;12.49;69.44
13593;BME280;6867;50.998;4.250;2023-02-19T05:43:47;101896.91;;;12.66;69.63
13593;BME280;6867;50.998;4.250;2023-02-19T05:46:17;101895.06;;;12.45;69.29
13593;BME280;6867;50.998;4.250;2023-02-19T05:48:44;101922.59;;;12.40;70.00
13593;BME280;6867;50.998;4.250;2023-02-19T05:51:13;101918.75;;;12.71;69.58
13593;BME280;6867;50.998;4.250;2023-02-19T05:53:41;101911.28;;;12.73;69.06
13593;BME280;6867;50.998;4.250;2023-02-19T05:56:23;101905.97;;;12.80;68.78
13593;BME280;6867;50.998;4.250;2023-02-19T05:58:50;101917.19;;;12.62;69.45
13593;BME280;6867;50.998;4.250;2023-02-19T06:01:20;101917.75;;;12.79;68.86
13593;BME280;6867;50.998;4.250;2023-02-19T06:03:47;101904.03;;;12.74;68.35
13593;BME280;6867;50.998;4.250;2023-02-19T06:06:15;101906.41;;;12.83;68.19
13593;BME280;6867;50.998;4.250;2023-02-19T06:08:43;101908.13;;;12.69;68.54
13593;BME280;6867;50.998;4.250;2023-02-19T06:11:10;101909.25;;;12.75;68.30
13593;BME280;6867;50.998;4.250;2023-02-19T06:13:36;101900.28;;;12.75;67.90
13593;BME280;6867;50.998;4.250;2023-02-19T06:16:03;101911.28;;;12.73;68.08
13593;BME280;6867;50.998;4.250;2023-02-19T06:18:32;101911.25;;;12.94;67.88
13593;BME280;6867;50.998;4.250;2023-02-19T06:20:59;101912.47;;;12.42;68.52
13593;BME280;6867;50.998;4.250;2023-02-19T06:23:27;101939.16;;;12.59;68.42
13593;BME280;6867;50.998;4.250;2023-02-19T06:25:53;101915.84;;;12.73;67.88
13593;BME280;6867;50.998;4.250;2023-02-19T06:28:20;101910.06;;;12.76;67.54
13593;BME280;6867;50.998;4.250;2023-02-19T06:30:47;101912.31;;;12.72;67.61
13593;BME280;6867;50.998;4.250;2023-02-19T06:33:13;101917.63;;;12.65;67.56
13593;BME280;6867;50.998;4.250;2023-02-19T06:35:41;101909.56;;;12.65;67.58
13593;BME280;6867;50.998;4.250;2023-02-19T06:38:08;101913.97;;;12.73;67.54
13593;BME280;6867;50.998;4.250;2023-02-19T06:40:35;101911.22;;;12.66;67.30
13593;BME280;6867;50.998;4.250;2023-02-19T06:43:01;101903.13;;;12.88;66.99
13593;BME280;6867;50.998;4.250;2023-02-19T06:45:28;101907.09;;;12.70;67.12
13593;BME280;6867;50.998;4.250;2023-02-19T06:47:55;101914.63;;;12.75;67.09
13593;BME280;6867;50.998;4.250;2023-02-19T06:50:21;101917.50;;;12.74;67.23
13593;BME280;6867;50.998;4.250;2023-02-19T06:52:50;101927.09;;;12.76;67.12
13593;BME280;6867;50.998;4.250;2023-02-19T06:55:16;101937.75;;;12.63;67.61
13593;BME280;6867;50.998;4.250;2023-02-19T06:57:43;101956.88;;;12.46;68.15
13593;BME280;6867;50.998;4.250;2023-02-19T07:00:10;101941.31;;;12.49;67.99
13593;BME280;6867;50.998;4.250;2023-02-19T07:02:37;101935.69;;;12.43;68.21
13593;BME280;6867;50.998;4.250;2023-02-19T07:05:04;101952.44;;;12.60;67.98
13593;BME280;6867;50.998;4.250;2023-02-19T07:07:31;101949.03;;;12.52;68.18
13593;BME280;6867;50.998;4.250;2023-02-19T07:09:59;101958.19;;;12.57;68.13
13593;BME280;6867;50.998;4.250;2023-02-19T07:12:25;101950.56;;;12.61;67.94
13593;BME280;6867;50.998;4.250;2023-02-19T07:14:52;101947.28;;;12.65;67.56
13593;BME280;6867;50.998;4.250;2023-02-19T07:17:19;101954.34;;;12.66;67.44
13593;BME280;6867;50.998;4.250;2023-02-19T07:19:45;101961.09;;;12.56;67.88
13593;BME280;6867;50.998;4.250;2023-02-19T07:22:12;101975.28;;;12.64;67.69
13593;BME280;6867;50.998;4.250;2023-02-19T07:24:39;101967.31;;;12.78;67.16
13593;BME280;6867;50.998;4.250;2023-02-19T07:27:07;101962.88;;;12.91;66.94
13593;BME280;6867;50.998;4.250;2023-02-19T07:29:33;101966.13;;;12.80;66.86
13593;BME280;6867;50.998;4.250;2023-02-19T07:32:02;101981.75;;;12.70;67.00
13593;BME280;6867;50.998;4.250;2023-02-19T07:34:29;101995.75;;;12.59;67.60
13593;BME280;6867;50.998;4.250;2023-02-19T07:36:55;102011.25;;;12.71;67.70
13593;BME280;6867;50.998;4.250;2023-02-19T07:39:22;102020.72;;;12.31;68.88
13593;BME280;6867;50.998;4.250;2023-02-19T07:41:49;102022.84;;;12.72;68.60
13593;BME280;6867;50.998;4.250;2023-02-19T07:44:17;102025.66;;;12.64;68.64
13593;BME280;6867;50.998;4.250;2023-02-19T07:46:44;102042.06;;;12.48;69.24
13593;BME280;6867;50.998;4.250;2023-02-19T07:49:10;102024.38;;;12.60;68.34
13593;BME280;6867;50.998;4.250;2023-02-19T07:51:37;102043.38;;;12.73;69.01
13593;BME280;6867;50.998;4.250;2023-02-19T07:54:04;102040.94;;;12.78;68.97
13593;BME280;6867;50.998;4.250;2023-02-19T07:56:32;102044.28;;;12.59;68.76
13593;BME280;6867;50.998;4.250;2023-02-19T07:58:59;102041.81;;;12.42;68.88
13593;BME280;6867;50.998;4.250;2023-02-19T08:01:27;102074.03;;;12.51;69.44
13593;BME280;6867;50.998;4.250;2023-02-19T08:04:08;102074.94;;;12.58;69.67
13593;BME280;6867;50.998;4.250;2023-02-19T08:06:36;102074.44;;;12.69;68.95
13593;BME280;6867;50.998;4.250;2023-02-19T08:09:02;102069.66;;;12.50;69.25
13593;BME280;6867;50.998;4.250;2023-02-19T08:11:29;102079.44;;;12.51;69.35
13593;BME280;6867;50.998;4.250;2023-02-19T08:14:14;102080.94;;;12.38;69.04
13593;BME280;6867;50.998;4.250;2023-02-19T08:16:48;102090.25;;;12.72;69.29
13593;BME280;6867;50.998;4.250;2023-02-19T08:19:15;102080.72;;;12.91;68.40
13593;BME280;6867;50.998;4.250;2023-02-19T08:21:42;102071.16;;;12.88;67.89
13593;BME280;6867;50.998;4.250;2023-02-19T08:24:09;102068.13;;;12.98;67.42
13593;BME280;6867;50.998;4.250;2023-02-19T08:26:35;102083.22;;;12.92;67.88
13593;BME280;6867;50.998;4.250;2023-02-19T08:29:02;102077.13;;;12.84;67.80
13593;BME280;6867;50.998;4.250;2023-02-19T08:31:29;102056.75;;;13.03;66.95
13593;BME280;6867;50.998;4.250;2023-02-19T08:33:57;102060.50;;;13.02;66.79
13593;BME280;6867;50.998;4.250;2023-02-19T08:36:24;102061.00;;;12.90;66.89
13593;BME280;6867;50.998;4.250;2023-02-19T08:38:51;102070.56;;;12.93;66.43
13593;BME280;6867;50.998;4.250;2023-02-19T08:41:18;102072.81;;;13.26;66.06
13593;BME280;6867;50.998;4.250;2023-02-19T08:43:45;102056.28;;;13.35;65.54
13593;BME280;6867;50.998;4.250;2023-02-19T08:46:12;102084.66;;;13.10;65.80
13593;BME280;6867;50.998;4.250;2023-02-19T08:48:39;102077.34;;;13.47;65.43
13593;BME280;6867;50.998;4.250;2023-02-19T08:51:09;102063.84;;;13.47;64.80
13593;BME280;6867;50.998;4.250;2023-02-19T08:53:37;102100.41;;;13.28;65.68
13593;BME280;6867;50.998;4.250;2023-02-19T08:56:05;102091.44;;;13.42;65.58
13593;BME280;6867;50.998;4.250;2023-02-19T08:58:32;102097.66;;;12.85;65.94
13593;BME280;6867;50.998;4.250;2023-02-19T09:00:59;102080.31;;;13.30;65.52
13593;BME280;6867;50.998;4.250;2023-02-19T09:03:26;102070.72;;;13.77;64.53
13593;BME280;6867;50.998;4.250;2023-02-19T09:05:52;102060.53;;;13.79;63.86
13593;BME280;6867;50.998;4.250;2023-02-19T09:08:21;102037.41;;;13.63;63.44
13593;BME280;6867;50.998;4.250;2023-02-19T09:10:56;102031.19;;;13.69;63.44
13593;BME280;6867;50.998;4.250;2023-02-19T09:13:23;102051.50;;;13.59;63.72
13593;BME280;6867;50.998;4.250;2023-02-19T09:15:50;102058.16;;;13.63;63.31
13593;BME280;6867;50.998;4.250;2023-02-19T09:18:16;102060.00;;;13.90;63.58
13593;BME280;6867;50.998;4.250;2023-02-19T09:20:43;102076.47;;;13.67;64.08
13593;BME280;6867;50.998;4.250;2023-02-19T09:23:10;102070.72;;;13.77;63.48
13593;BME280;6867;50.998;4.250;2023-02-19T09:25:38;102070.47;;;13.72;63.10
13593;BME280;6867;50.998;4.250;2023-02-19T09:28:04;102066.97;;;13.78;63.21
13593;BME280;6867;50.998;4.250;2023-02-19T09:30:31;102048.72;;;13.80;63.02
13593;BME280;6867;50.998;4.250;2023-02-19T09:32:58;102063.28;;;13.58;63.01
13593;BME280;6867;50.998;4.250;2023-02-19T09:35:24;102054.88;;;13.67;63.01
13593;BME280;6867;50.998;4.250;2023-02-19T09:37:51;102044.59;;;13.84;62.38
13593;BME280;6867;50.998;4.250;2023-02-19T09:40:18;102045.38;;;13.78;62.63
13593;BME280;6867;50.998;4.250;2023-02-19T09:42:48;102042.34;;;13.94;61.78
13593;BME280;6867;50.998;4.250;2023-02-19T09:45:20;102053.00;;;14.03;62.29
13593;BME280;6867;50.998;4.250;2023-02-19T09:47:52;102068.81;;;14.06;62.93
13593;BME280;6867;50.998;4.250;2023-02-19T09:50:22;102043.84;;;14.04;61.80
13593;BME280;6867;50.998;4.250;2023-02-19T09:52:54;102039.44;;;13.96;61.87
13593;BME280;6867;50.998;4.250;2023-02-19T09:55:29;102054.22;;;14.00;62.26
13593;BME280;6867;50.998;4.250;2023-02-19T09:58:00;102049.63;;;13.94;62.08
13593;BME280;6867;50.998;4.250;2023-02-19T10:00:30;102074.00;;;13.73;62.34
13593;BME280;6867;50.998;4.250;2023-02-19T10:03:03;102076.03;;;13.99;62.25
13593;BME280;6867;50.998;4.250;2023-02-19T10:05:30;102060.00;;;13.90;61.74
13593;BME280;6867;50.998;4.250;2023-02-19T10:07:58;102066.13;;;13.71;61.95
13593;BME280;6867;50.998;4.250;2023-02-19T10:10:31;102063.78;;;14.37;61.14
13593;BME280;6867;50.998;4.250;2023-02-19T10:13:14;102022.25;;;13.69;60.88
13593;BME280;6867;50.998;4.250;2023-02-19T10:15:46;102052.09;;;13.89;60.97
13593;BME280;6867;50.998;4.250;2023-02-19T10:18:15;102057.63;;;14.50;60.39
13593;BME280;6867;50.998;4.250;2023-02-19T10:20:43;102019.59;;;14.58;59.15
13593;BME280;6867;50.998;4.250;2023-02-19T10:23:13;102080.31;;;13.80;60.85
13593;BME280;6867;50.998;4.250;2023-02-19T10:25:44;102067.22;;;14.18;60.59
13593;BME280;6867;50.998;4.250;2023-02-19T10:28:15;102069.34;;;13.88;60.53
13593;BME280;6867;50.998;4.250;2023-02-19T10:30:43;102077.22;;;13.55;61.32
13593;BME280;6867;50.998;4.250;2023-02-19T10:33:12;102089.75;;;13.69;61.32
13593;BME280;6867;50.998;4.250;2023-02-19T10:35:51;102095.94;;;13.91;61.38
13593;BME280;6867;50.998;4.250;2023-02-19T10:38:21;102092.44;;;14.32;60.50
13593;BME280;6867;50.998;4.250;2023-02-19T10:40:56;102056.97;;;14.48;59.48
13593;BME280;6867;50.998;4.250;2023-02-19T10:43:27;102085.84;;;14.41;59.32
13593;BME280;6867;50.998;4.250;2023-02-19T10:46:00;102066.38;;;14.52;59.06
13593;BME280;6867;50.998;4.250;2023-02-19T10:48:31;102066.66;;;14.77;58.74
13593;BME280;6867;50.998;4.250;2023-02-19T10:51:01;102082.13;;;15.03;58.33
13593;BME280;6867;50.998;4.250;2023-02-19T10:53:42;102070.94;;;14.52;58.70
13593;BME280;6867;50.998;4.250;2023-02-19T10:56:12;102110.66;;;14.16;59.62
13593;BME280;6867;50.998;4.250;2023-02-19T10:58:41;102099.44;;;14.13;59.79
13593;BME280;6867;50.998;4.250;2023-02-19T11:01:14;102100.59;;;14.38;59.80
13593;BME280;6867;50.998;4.250;2023-02-19T11:03:41;102119.78;;;14.15;59.81
13593;BME280;6867;50.998;4.250;2023-02-19T11:06:10;102108.03;;;14.30;59.40
13593;BME280;6867;50.998;4.250;2023-02-19T11:08:54;102113.19;;;14.25;59.85
13593;BME280;6867;50.998;4.250;2023-02-19T11:11:27;102131.03;;;14.19;60.29
13593;BME280;6867;50.998;4.250;2023-02-19T11:13:56;102133.53;;;14.20;59.87
13593;BME280;6867;50.998;4.250;2023-02-19T11:16:36;102139.78;;;14.49;60.10
13593;BME280;6867;50.998;4.250;2023-02-19T11:19:04;102139.13;;;14.47;59.47
13593;BME280;6867;50.998;4.250;2023-02-19T11:21:31;102141.78;;;14.40;59.82
13593;BME280;6867;50.998;4.250;2023-02-19T11:23:59;102135.97;;;13.81;60.53
13593;BME280;6867;50.998;4.250;2023-02-19T11:26:31;102195.50;;;13.94;61.39
13593;BME280;6867;50.998;4.250;2023-02-19T11:29:16;102180.56;;;13.98;60.96
13593;BME280;6867;50.998;4.250;2023-02-19T11:31:44;102172.81;;;14.16;60.78
13593;BME280;6867;50.998;4.250;2023-02-19T11:34:25;102182.78;;;13.88;61.28
13593;BME280;6867;50.998;4.250;2023-02-19T11:37:07;102177.50;;;13.58;61.82
13593;BME280;6867;50.998;4.250;2023-02-19T11:39:35;102193.53;;;13.81;61.68
13593;BME280;6867;50.998;4.250;2023-02-19T11:42:23;102229.19;;;13.98;62.52
13593;BME280;6867;50.998;4.250;2023-02-19T11:45:05;102221.56;;;14.02;62.11
13593;BME280;6867;50.998;4.250;2023-02-19T11:50:31;102195.84;;;13.84;62.12
13593;BME280;6867;50.998;4.250;2023-02-19T11:53:12;102203.44;;;13.53;62.94
13593;BME280;6867;50.998;4.250;2023-02-19T11:55:51;102219.88;;;13.36;63.47
13593;BME280;6867;50.998;4.250;2023-02-19T11:58:59;102224.06;;;13.39;63.82
13593;BME280;6867;50.998;4.250;2023-02-19T12:01:56;102225.41;;;13.13;64.41
13593;BME280;6867;50.998;4.250;2023-02-19T12:04:59;102232.16;;;13.39;64.56
13593;BME280;6867;50.998;4.250;2023-02-19T12:07:50;102210.59;;;13.24;64.53
13593;BME280;6867;50.998;4.250;2023-02-19T12:10:21;102188.13;;;13.60;63.74
13593;BME280;6867;50.998;4.250;2023-02-19T12:12:56;102203.06;;;13.56;63.92
13593;BME280;6867;50.998;4.250;2023-02-19T12:15:44;102159.91;;;13.84;62.17
13593;BME280;6867;50.998;4.250;2023-02-19T12:18:37;102177.38;;;14.16;62.67
13593;BME280;6867;50.998;4.250;2023-02-19T12:21:18;102160.06;;;13.82;62.45
13593;BME280;6867;50.998;4.250;2023-02-19T12:24:10;102140.03;;;14.26;61.85
13593;BME280;6867;50.998;4.250;2023-02-19T12:26:51;102152.97;;;14.37;61.30
13593;BME280;6867;50.998;4.250;2023-02-19T12:29:31;102131.34;;;14.31;60.48
13593;BME280;6867;50.998;4.250;2023-02-19T12:32:20;102114.13;;;14.38;60.45
13593;BME280;6867;50.998;4.250;2023-02-19T12:35:15;102121.41;;;14.44;60.04
13593;BME280;6867;50.998;4.250;2023-02-19T12:37:51;102106.84;;;14.39;59.64
13593;BME280;6867;50.998;4.250;2023-02-19T12:40:30;102139.75;;;14.14;60.49
13593;BME280;6867;50.998;4.250;2023-02-19T12:43:08;102134.34;;;13.86;60.90
13593;BME280;6867;50.998;4.250;2023-02-19T12:45:38;102166.66;;;13.73;61.23
13593;BME280;6867;50.998;4.250;2023-02-19T12:48:12;102168.38;;;13.81;60.84
13593;BME280;6867;50.998;4.250;2023-02-19T12:50:42;102159.88;;;14.12;60.16
13593;BME280;6867;50.998;4.250;2023-02-19T12:53:17;102131.03;;;13.84;60.07
13593;BME280;6867;50.998;4.250;2023-02-19T12:55:47;102119.13;;;14.07;59.13
13593;BME280;6867;50.998;4.250;2023-02-19T12:58:22;102140.63;;;14.22;59.11
13593;BME280;6867;50.998;4.250;2023-02-19T13:00:52;102144.34;;;14.20;59.72
13593;BME280;6867;50.998;4.250;2023-02-19T13:03:28;102143.88;;;14.45;59.02
13593;BME280;6867;50.998;4.250;2023-02-19T13:06:03;102137.34;;;14.61;58.97
13593;BME280;6867;50.998;4.250;2023-02-19T13:08:37;102120.53;;;14.03;59.62
13593;BME280;6867;50.998;4.250;2023-02-19T13:11:08;102143.13;;;13.45;60.08
13593;BME280;6867;50.998;4.250;2023-02-19T13:13:39;102161.78;;;13.62;59.96
13593;BME280;6867;50.998;4.250;2023-02-19T13:16:11;102154.00;;;13.52;60.39
13593;BME280;6867;50.998;4.250;2023-02-19T13:18:44;102156.03;;;13.50;60.57
13593;BME280;6867;50.998;4.250;2023-02-19T13:21:13;102125.09;;;13.74;59.33
13593;BME280;6867;50.998;4.250;2023-02-19T13:24:06;102165.25;;;13.56;60.38